createdAt,value
2019-03-15T00:00:29.062Z,2.70
2019-03-15T00:01:29.062Z,2.40
2019-03-15T00:02:29.041Z,2.60
2019-03-15T00:03:29.037Z,2.40
2019-03-15T00:04:29.021Z,2.30
2019-03-15T00:05:29.009Z,2.20
2019-03-15T00:06:29.007Z,2.50
2019-03-15T00:07:28.987Z,2.30
2019-03-15T00:08:28.975Z,2.40
2019-03-15T00:09:28.970Z,2.10
2019-03-15T00:10:28.954Z,2.40
2019-03-15T00:11:29.352Z,2.30
2019-03-15T00:12:28.934Z,1.90
2019-03-15T00:13:28.923Z,2.50
2019-03-15T00:14:28.920Z,2.30
2019-03-15T00:15:28.903Z,2.00
2019-03-15T00:16:28.892Z,2.30
2019-03-15T00:17:28.891Z,2.00
2019-03-15T00:18:28.869Z,2.30
2019-03-15T00:19:28.864Z,2.20
2019-03-15T00:20:28.846Z,2.00
2019-03-15T00:21:28.836Z,2.20
2019-03-15T00:22:28.835Z,1.90
2019-03-15T00:23:28.818Z,2.10
2019-03-15T00:24:28.805Z,1.90
2019-03-15T00:25:28.799Z,1.70
2019-03-15T00:26:28.787Z,2.40
2019-03-15T00:27:28.790Z,2.10
2019-03-15T00:28:28.761Z,2.00
2019-03-15T00:29:28.750Z,1.80
2019-03-15T00:30:28.739Z,1.90
2019-03-15T00:31:28.734Z,2.00
2019-03-15T00:32:28.726Z,2.00
2019-03-15T00:33:28.705Z,2.00
2019-03-15T00:34:28.695Z,2.20
2019-03-15T00:35:28.685Z,2.20
2019-03-15T00:36:28.674Z,1.80
2019-03-15T00:37:28.672Z,1.80
2019-03-15T00:38:28.658Z,2.00
2019-03-15T00:39:28.641Z,2.10
2019-03-15T00:40:28.642Z,2.10
2019-03-15T00:41:28.619Z,1.80
2019-03-15T00:42:28.620Z,2.00
2019-03-15T00:43:28.604Z,2.30
2019-03-15T00:44:28.586Z,2.00
2019-03-15T00:45:28.575Z,1.90
2019-03-15T00:46:28.565Z,1.80
2019-03-15T00:47:28.560Z,1.90
2019-03-15T00:48:28.646Z,1.90
2019-03-15T00:49:28.531Z,2.20
2019-03-15T00:50:28.520Z,2.30
2019-03-15T00:51:28.510Z,2.00
2019-03-15T00:52:28.507Z,2.30
2019-03-15T00:53:28.488Z,2.10
2019-03-15T00:54:28.483Z,2.00
2019-03-15T00:55:28.467Z,2.20
2019-03-15T00:56:28.454Z,2.00
2019-03-15T00:57:28.451Z,2.30
2019-03-15T00:58:28.434Z,2.20
2019-03-15T00:59:28.422Z,2.10
2019-03-15T01:00:28.412Z,2.10
2019-03-15T01:01:28.403Z,2.20
2019-03-15T01:02:28.397Z,2.40
2019-03-15T01:03:28.377Z,2.40
2019-03-15T01:04:28.367Z,2.00
2019-03-15T01:05:28.359Z,2.50
2019-03-15T01:06:28.350Z,2.60
2019-03-15T01:07:28.344Z,2.30
2019-03-15T01:08:28.326Z,2.50
2019-03-15T01:09:28.313Z,2.40
2019-03-15T01:10:28.301Z,2.30
2019-03-15T01:11:28.291Z,2.30
2019-03-15T01:12:28.289Z,2.60
2019-03-15T01:13:28.268Z,2.40
2019-03-15T01:14:28.258Z,2.10
2019-03-15T01:15:28.247Z,2.60
2019-03-15T01:16:28.237Z,2.00
2019-03-15T01:17:28.240Z,2.20
2019-03-15T01:18:28.215Z,2.20
2019-03-15T01:19:28.205Z,2.10
2019-03-15T01:20:28.197Z,2.50
2019-03-15T01:21:28.181Z,2.40
2019-03-15T01:22:28.183Z,2.50
2019-03-15T01:23:28.172Z,2.70
2019-03-15T01:24:28.155Z,2.20
2019-03-15T01:25:28.138Z,2.30
2019-03-15T01:26:28.127Z,2.30
2019-03-15T01:27:28.126Z,2.20
2019-03-15T01:28:28.110Z,2.20
2019-03-15T01:29:28.128Z,2.40
2019-03-15T01:30:28.084Z,2.40
2019-03-15T01:31:28.072Z,2.40
2019-03-15T01:32:28.069Z,2.20
2019-03-15T01:33:28.051Z,2.50
2019-03-15T01:34:28.042Z,2.50
2019-03-15T01:35:28.029Z,2.30
2019-03-15T01:36:28.019Z,2.40
2019-03-15T01:37:28.058Z,2.40
2019-03-15T01:38:28.003Z,2.20
2019-03-15T01:39:27.986Z,2.40
2019-03-15T01:40:27.974Z,2.30
2019-03-15T01:41:27.964Z,2.40
2019-03-15T01:42:27.961Z,2.30
2019-03-15T01:43:27.942Z,2.30
2019-03-15T01:44:27.929Z,2.70
2019-03-15T01:45:27.920Z,2.10
2019-03-15T01:46:27.910Z,2.30
2019-03-15T01:47:27.906Z,2.40
2019-03-15T01:48:27.890Z,2.40
2019-03-15T01:49:27.875Z,2.40
2019-03-15T01:50:27.864Z,2.20
2019-03-15T01:51:27.855Z,2.60
2019-03-15T01:52:27.853Z,2.60
2019-03-15T01:53:27.831Z,2.80
2019-03-15T01:54:27.824Z,2.80
2019-03-15T01:55:27.810Z,2.50
2019-03-15T01:56:27.798Z,2.40
2019-03-15T01:57:27.824Z,2.40
2019-03-15T01:58:27.779Z,2.70
2019-03-15T01:59:27.767Z,2.70
2019-03-15T02:00:27.756Z,2.40
2019-03-15T02:01:27.744Z,2.80
2019-03-15T02:02:27.733Z,2.90
2019-03-15T02:03:27.733Z,2.50
2019-03-15T02:04:27.717Z,2.70
2019-03-15T02:05:27.718Z,2.50
2019-03-15T02:06:27.694Z,2.80
2019-03-15T02:07:27.678Z,2.70
2019-03-15T02:08:27.676Z,2.70
2019-03-15T02:09:27.658Z,2.70
2019-03-15T02:10:27.644Z,2.40
2019-03-15T02:11:27.634Z,2.50
2019-03-15T02:12:27.628Z,2.50
2019-03-15T02:13:27.624Z,2.50
2019-03-15T02:14:27.709Z,2.70
2019-03-15T02:15:27.590Z,2.50
2019-03-15T02:16:27.580Z,2.70
2019-03-15T02:17:27.569Z,2.90
2019-03-15T02:18:27.569Z,2.80
2019-03-15T02:19:27.547Z,2.60
2019-03-15T02:20:27.537Z,2.70
2019-03-15T02:21:27.524Z,2.50
2019-03-15T02:22:27.516Z,2.90
2019-03-15T02:23:27.511Z,2.50
2019-03-15T02:24:27.492Z,2.90
2019-03-15T02:25:27.693Z,2.80
2019-03-15T02:26:27.474Z,2.60
2019-03-15T02:27:27.460Z,2.80
2019-03-15T02:28:27.458Z,2.50
2019-03-15T02:29:27.437Z,2.80
2019-03-15T02:30:27.428Z,2.70
2019-03-15T02:31:27.419Z,2.50
2019-03-15T02:32:27.410Z,3.00
2019-03-15T02:33:27.405Z,2.50
2019-03-15T02:34:27.702Z,2.80
2019-03-15T02:35:27.382Z,2.80
2019-03-15T02:36:27.361Z,2.30
2019-03-15T02:37:27.353Z,3.20
2019-03-15T02:38:27.354Z,2.50
2019-03-15T02:39:27.334Z,2.40
2019-03-15T02:40:27.317Z,2.70
2019-03-15T02:41:27.307Z,2.80
2019-03-15T02:42:27.302Z,2.60
2019-03-15T02:43:27.292Z,2.40
2019-03-15T02:44:27.286Z,2.70
2019-03-15T02:45:27.265Z,2.70
2019-03-15T02:46:27.252Z,2.80
2019-03-15T02:47:27.242Z,2.60
2019-03-15T02:48:27.260Z,2.50
2019-03-15T02:49:27.219Z,2.00
2019-03-15T02:50:27.209Z,2.40
2019-03-15T02:51:27.196Z,2.60
2019-03-15T02:52:27.194Z,2.40
2019-03-15T02:53:27.184Z,2.20
2019-03-15T02:54:27.410Z,2.30
2019-03-15T02:55:27.157Z,2.40
2019-03-15T02:56:27.147Z,2.20
2019-03-15T02:57:27.131Z,2.50
2019-03-15T02:58:27.966Z,2.20
2019-03-15T02:59:27.109Z,2.30
2019-03-15T03:00:27.104Z,2.30
2019-03-15T03:01:27.093Z,2.50
2019-03-15T03:02:27.843Z,2.70
2019-03-15T03:03:27.076Z,3.00
2019-03-15T03:04:27.055Z,2.50
2019-03-15T03:05:27.045Z,2.50
2019-03-15T03:06:28.031Z,2.20
2019-03-15T03:07:27.024Z,2.40
2019-03-15T03:08:27.025Z,2.70
2019-03-15T03:09:27.003Z,2.70
2019-03-15T03:10:26.992Z,2.60
2019-03-15T03:11:26.981Z,2.50
2019-03-15T03:12:26.968Z,2.30
2019-03-15T03:13:26.964Z,2.60
2019-03-15T03:14:26.946Z,2.50
2019-03-15T03:15:26.946Z,2.50
2019-03-15T03:16:26.926Z,2.80
2019-03-15T03:17:26.913Z,2.40
2019-03-15T03:18:26.913Z,2.80
2019-03-15T03:19:28.189Z,2.40
2019-03-15T03:20:26.881Z,2.60
2019-03-15T03:21:27.055Z,2.60
2019-03-15T03:22:26.858Z,2.60
2019-03-15T03:23:26.859Z,2.40
2019-03-15T03:24:26.842Z,2.30
2019-03-15T03:25:26.828Z,2.40
2019-03-15T03:26:27.060Z,2.70
2019-03-15T03:27:26.811Z,2.40
2019-03-15T03:28:27.999Z,2.50
2019-03-15T03:29:26.783Z,2.30
2019-03-15T03:30:26.805Z,2.40
2019-03-15T03:31:26.811Z,2.10
2019-03-15T03:32:26.752Z,2.30
2019-03-15T03:33:26.747Z,2.20
2019-03-15T03:34:26.770Z,1.90
2019-03-15T03:35:26.721Z,2.20
2019-03-15T03:36:26.706Z,2.20
2019-03-15T03:37:26.694Z,2.40
2019-03-15T03:38:26.694Z,2.20
2019-03-15T03:39:26.674Z,2.40
2019-03-15T03:40:26.675Z,2.40
2019-03-15T03:41:26.653Z,2.50
2019-03-15T03:42:26.646Z,2.50
2019-03-15T03:43:26.639Z,2.50
2019-03-15T03:44:26.619Z,2.50
2019-03-15T03:45:26.610Z,2.60
2019-03-15T03:46:27.363Z,2.50
2019-03-15T03:47:26.583Z,2.30
2019-03-15T03:48:26.583Z,2.90
2019-03-15T03:49:27.443Z,2.70
2019-03-15T03:50:26.553Z,2.80
2019-03-15T03:51:26.540Z,2.70
2019-03-15T03:52:26.531Z,2.80
2019-03-15T03:53:26.528Z,2.30
2019-03-15T03:54:26.507Z,2.50
2019-03-15T03:55:26.498Z,2.20
2019-03-15T03:56:26.489Z,2.30
2019-03-15T03:57:26.475Z,2.10
2019-03-15T03:58:26.504Z,2.50
2019-03-15T03:59:26.456Z,2.50
2019-03-15T04:00:26.443Z,2.40
2019-03-15T04:01:26.431Z,2.40
2019-03-15T04:02:26.421Z,2.20
2019-03-15T04:03:26.409Z,2.10
2019-03-15T04:04:26.407Z,2.20
2019-03-15T04:05:26.393Z,2.30
2019-03-15T04:06:26.376Z,2.20
2019-03-15T04:07:26.370Z,2.40
2019-03-15T04:08:26.355Z,2.20
2019-03-15T04:09:26.359Z,2.60
2019-03-15T04:10:26.333Z,1.90
2019-03-15T04:11:26.322Z,2.30
2019-03-15T04:12:26.312Z,2.30
2019-03-15T04:13:26.305Z,2.40
2019-03-15T04:14:26.298Z,2.70
2019-03-15T04:15:26.281Z,1.80
2019-03-15T04:16:26.268Z,2.60
2019-03-15T04:17:26.259Z,2.60
2019-03-15T04:18:26.247Z,2.60
2019-03-15T04:19:26.245Z,2.90
2019-03-15T04:20:26.225Z,2.80
2019-03-15T04:21:26.215Z,2.70
2019-03-15T04:22:26.206Z,2.50
2019-03-15T04:23:26.193Z,2.50
2019-03-15T04:24:26.188Z,2.60
2019-03-15T04:25:26.169Z,2.70
2019-03-15T04:26:26.157Z,2.40
2019-03-15T04:27:26.151Z,2.60
2019-03-15T04:28:26.140Z,2.40
2019-03-15T04:29:26.135Z,2.60
2019-03-15T04:30:26.116Z,2.50
2019-03-15T04:31:26.104Z,2.50
2019-03-15T04:32:26.094Z,2.30
2019-03-15T04:33:26.085Z,2.50
2019-03-15T04:34:28.350Z,2.70
2019-03-15T04:35:26.061Z,2.20
2019-03-15T04:36:26.049Z,2.60
2019-03-15T04:37:26.038Z,2.60
2019-03-15T04:38:26.190Z,2.50
2019-03-15T04:39:26.026Z,2.60
2019-03-15T04:40:26.006Z,2.30
2019-03-15T04:41:25.996Z,2.50
2019-03-15T04:42:25.985Z,2.60
2019-03-15T04:43:26.110Z,2.10
2019-03-15T04:44:25.973Z,2.50
2019-03-15T04:45:25.954Z,2.70
2019-03-15T04:46:25.940Z,2.40
2019-03-15T04:47:25.928Z,2.50
2019-03-15T04:48:25.918Z,2.30
2019-03-15T04:49:25.917Z,2.50
2019-03-15T04:50:25.898Z,2.30
2019-03-15T04:51:25.892Z,2.90
2019-03-15T04:52:25.876Z,2.60
2019-03-15T04:53:25.863Z,2.50
2019-03-15T04:54:25.860Z,2.70
2019-03-15T04:55:25.843Z,2.10
2019-03-15T04:56:25.835Z,2.60
2019-03-15T04:57:25.833Z,2.60
2019-03-15T04:58:25.809Z,2.50
2019-03-15T04:59:25.821Z,2.60
2019-03-15T05:00:25.787Z,2.70
2019-03-15T05:01:25.784Z,2.90
2019-03-15T05:02:25.767Z,2.50
2019-03-15T05:03:25.754Z,2.60
2019-03-15T05:04:25.753Z,2.40
2019-03-15T05:05:25.734Z,2.20
2019-03-15T05:06:25.722Z,2.80
2019-03-15T05:07:25.714Z,2.70
2019-03-15T05:08:25.716Z,2.30
2019-03-15T05:09:25.704Z,2.70
2019-03-15T05:10:25.678Z,2.30
2019-03-15T05:11:25.669Z,2.80
2019-03-15T05:12:25.656Z,2.20
2019-03-15T05:13:25.646Z,2.40
2019-03-15T05:14:25.647Z,2.40
2019-03-15T05:15:25.623Z,2.40
2019-03-15T05:16:25.613Z,2.40
2019-03-15T05:17:25.603Z,2.40
2019-03-15T05:18:25.591Z,2.30
2019-03-15T05:19:25.591Z,2.30
2019-03-15T05:20:25.570Z,2.30
2019-03-15T05:21:25.559Z,2.40
2019-03-15T05:22:25.548Z,2.50
2019-03-15T05:23:25.538Z,2.80
2019-03-15T05:24:25.533Z,2.40
2019-03-15T05:25:25.521Z,2.40
2019-03-15T05:26:25.505Z,2.30
2019-03-15T05:27:25.493Z,1.90
2019-03-15T05:28:25.483Z,2.00
2019-03-15T05:29:25.482Z,2.10
2019-03-15T05:30:25.460Z,2.20
2019-03-15T05:31:25.449Z,2.30
2019-03-15T05:32:25.439Z,2.10
2019-03-15T05:33:25.427Z,2.50
2019-03-15T05:34:25.427Z,2.20
2019-03-15T05:35:25.413Z,2.10
2019-03-15T05:36:25.395Z,2.30
2019-03-15T05:37:25.385Z,2.20
2019-03-15T05:38:25.372Z,2.30
2019-03-15T05:39:25.372Z,2.30
2019-03-15T05:40:25.351Z,2.10
2019-03-15T05:41:25.341Z,2.00
2019-03-15T05:42:25.331Z,2.00
2019-03-15T05:43:25.322Z,2.20
2019-03-15T05:44:25.318Z,2.30
2019-03-15T05:45:25.295Z,1.80
2019-03-15T05:46:25.287Z,2.10
2019-03-15T05:47:25.278Z,1.80
2019-03-15T05:48:25.266Z,2.60
2019-03-15T05:49:25.263Z,2.00
2019-03-15T05:50:25.243Z,1.90
2019-03-15T05:51:25.231Z,1.80
2019-03-15T05:52:25.219Z,1.90
2019-03-15T05:53:25.209Z,1.90
2019-03-15T05:54:25.217Z,1.90
2019-03-15T05:55:25.192Z,1.70
2019-03-15T05:56:25.178Z,2.10
2019-03-15T05:57:25.167Z,1.90
2019-03-15T05:58:25.156Z,1.90
2019-03-15T05:59:25.152Z,2.00
2019-03-15T06:00:25.133Z,1.90
2019-03-15T06:01:25.122Z,1.90
2019-03-15T06:02:25.110Z,2.20
2019-03-15T06:03:25.101Z,1.80
2019-03-15T06:04:25.097Z,2.10
2019-03-15T06:05:25.079Z,2.20
2019-03-15T06:06:25.072Z,1.80
2019-03-15T06:07:25.055Z,2.20
2019-03-15T06:08:27.527Z,2.00
2019-03-15T06:09:25.041Z,2.00
2019-03-15T06:10:25.028Z,2.10
2019-03-15T06:11:25.012Z,1.90
2019-03-15T06:12:25.000Z,2.20
2019-03-15T06:13:24.989Z,2.20
2019-03-15T06:14:25.002Z,2.10
2019-03-15T06:15:24.969Z,2.40
2019-03-15T06:16:24.957Z,2.10
2019-03-15T06:17:24.950Z,2.30
2019-03-15T06:18:24.936Z,2.10
2019-03-15T06:19:24.925Z,2.60
2019-03-15T06:20:24.923Z,2.60
2019-03-15T06:21:24.904Z,2.50
2019-03-15T06:22:24.892Z,2.60
2019-03-15T06:23:24.897Z,2.60
2019-03-15T06:24:24.871Z,2.70
2019-03-15T06:25:24.868Z,2.80
2019-03-15T06:26:24.848Z,2.70
2019-03-15T06:27:24.836Z,3.10
2019-03-15T06:28:24.830Z,2.90
2019-03-15T06:29:24.822Z,2.90
2019-03-15T06:30:24.811Z,6.60
2019-03-15T06:31:24.793Z,7.70
2019-03-15T06:32:24.784Z,5.60
2019-03-15T06:33:24.779Z,2.90
2019-03-15T06:34:24.762Z,3.20
2019-03-15T06:35:24.765Z,3.30
2019-03-15T06:36:24.738Z,3.00
2019-03-15T06:37:24.727Z,2.80
2019-03-15T06:38:24.717Z,3.10
2019-03-15T06:39:24.707Z,3.10
2019-03-15T06:40:24.707Z,3.30
2019-03-15T06:41:24.685Z,2.90
2019-03-15T06:42:24.674Z,3.00
2019-03-15T06:43:24.663Z,3.10
2019-03-15T06:44:24.657Z,2.70
2019-03-15T06:45:24.652Z,2.80
2019-03-15T06:46:24.628Z,2.50
2019-03-15T06:47:24.618Z,2.70
2019-03-15T06:48:24.612Z,2.50
2019-03-15T06:49:24.597Z,2.50
2019-03-15T06:50:24.596Z,2.70
2019-03-15T06:51:24.579Z,2.80
2019-03-15T06:52:24.563Z,2.80
2019-03-15T06:53:24.553Z,3.10
2019-03-15T06:54:24.541Z,2.60
2019-03-15T06:55:25.502Z,2.50
2019-03-15T06:56:24.521Z,2.50
2019-03-15T06:57:24.510Z,2.60
2019-03-15T06:58:24.567Z,2.70
2019-03-15T06:59:24.492Z,2.50
2019-03-15T07:00:24.494Z,2.70
2019-03-15T07:01:24.466Z,2.60
2019-03-15T07:02:24.456Z,2.50
2019-03-15T07:03:24.446Z,2.90
2019-03-15T07:04:24.432Z,2.50
2019-03-15T07:05:24.429Z,2.60
2019-03-15T07:06:24.418Z,2.60
2019-03-15T07:07:24.399Z,2.90
2019-03-15T07:08:24.388Z,3.00
2019-03-15T07:09:24.380Z,2.70
2019-03-15T07:10:24.375Z,2.80
2019-03-15T07:11:24.355Z,3.10
2019-03-15T07:12:24.400Z,2.90
2019-03-15T07:13:24.334Z,3.00
2019-03-15T07:14:24.326Z,3.00
2019-03-15T07:15:24.320Z,3.20
2019-03-15T07:16:24.302Z,3.50
2019-03-15T07:17:24.292Z,3.10
2019-03-15T07:18:24.279Z,3.50
2019-03-15T07:19:27.537Z,3.60
2019-03-15T07:20:24.310Z,3.20
2019-03-15T07:21:24.248Z,3.30
2019-03-15T07:22:24.237Z,3.50
2019-03-15T07:23:24.226Z,2.90
2019-03-15T07:24:25.648Z,2.80
2019-03-15T07:25:24.205Z,3.50
2019-03-15T07:26:24.204Z,2.90
2019-03-15T07:27:24.185Z,3.10
2019-03-15T07:28:24.175Z,3.30
2019-03-15T07:29:24.178Z,3.60
2019-03-15T07:30:24.151Z,3.40
2019-03-15T07:31:24.153Z,3.60
2019-03-15T07:32:24.131Z,3.60
2019-03-15T07:33:24.120Z,3.60
2019-03-15T07:34:24.110Z,3.10
2019-03-15T07:35:24.098Z,3.30
2019-03-15T07:36:24.106Z,3.20
2019-03-15T07:37:24.076Z,3.40
2019-03-15T07:38:24.066Z,3.50
2019-03-15T07:39:26.469Z,3.60
2019-03-15T07:40:24.044Z,3.00
2019-03-15T07:41:25.405Z,3.00
2019-03-15T07:42:24.023Z,3.40
2019-03-15T07:43:24.014Z,3.20
2019-03-15T07:44:24.020Z,3.10
2019-03-15T07:45:23.991Z,3.10
2019-03-15T07:46:23.988Z,3.40
2019-03-15T07:47:23.968Z,3.50
2019-03-15T07:48:26.798Z,3.10
2019-03-15T07:49:23.951Z,3.20
2019-03-15T07:50:23.945Z,3.30
2019-03-15T07:51:23.936Z,3.30
2019-03-15T07:52:23.916Z,3.10
2019-03-15T07:53:23.932Z,3.00
2019-03-15T07:54:23.898Z,3.30
2019-03-15T07:55:23.882Z,3.20
2019-03-15T07:56:23.873Z,3.00
2019-03-15T07:57:23.872Z,3.40
2019-03-15T07:58:23.855Z,3.20
2019-03-15T07:59:23.842Z,3.20
2019-03-15T08:00:23.836Z,3.00
2019-03-15T08:01:23.821Z,3.10
2019-03-15T08:02:23.826Z,3.10
2019-03-15T08:03:23.798Z,2.90
2019-03-15T08:04:23.787Z,3.00
2019-03-15T08:05:23.780Z,3.10
2019-03-15T08:06:34.265Z,3.20
2019-03-15T08:07:35.737Z,3.10
2019-03-15T08:08:24.761Z,3.10
2019-03-15T08:09:23.734Z,3.00
2019-03-15T08:10:23.723Z,2.40
2019-03-15T08:11:23.714Z,2.80
2019-03-15T08:12:23.711Z,2.70
2019-03-15T08:13:23.696Z,3.10
2019-03-15T08:14:23.681Z,3.20
2019-03-15T08:15:23.699Z,2.80
2019-03-15T08:16:23.660Z,2.70
2019-03-15T08:17:23.672Z,2.90
2019-03-15T08:18:24.431Z,2.70
2019-03-15T08:19:23.633Z,3.00
2019-03-15T08:20:23.619Z,3.10
2019-03-15T08:21:23.604Z,2.40
2019-03-15T08:22:23.601Z,2.50
2019-03-15T08:23:23.586Z,2.80
2019-03-15T08:24:23.571Z,2.50
2019-03-15T08:25:23.559Z,2.90
2019-03-15T08:26:23.550Z,2.60
2019-03-15T08:27:23.548Z,2.40
2019-03-15T08:28:23.527Z,2.80
2019-03-15T08:29:23.517Z,2.70
2019-03-15T08:30:23.505Z,2.60
2019-03-15T08:31:23.613Z,3.00
2019-03-15T08:32:23.498Z,2.70
2019-03-15T08:33:23.473Z,3.10
2019-03-15T08:34:23.462Z,3.00
2019-03-15T08:35:24.720Z,2.70
2019-03-15T08:36:23.443Z,2.70
2019-03-15T08:37:23.438Z,3.00
2019-03-15T08:38:23.419Z,2.80
2019-03-15T08:39:23.410Z,2.70
2019-03-15T08:40:25.823Z,2.90
2019-03-15T08:41:23.387Z,2.60
2019-03-15T08:42:23.420Z,2.60
2019-03-15T08:43:23.364Z,2.60
2019-03-15T08:44:23.353Z,2.50
2019-03-15T08:45:23.341Z,2.10
2019-03-15T08:46:23.334Z,2.80
2019-03-15T08:47:23.319Z,2.50
2019-03-15T08:48:23.320Z,2.40
2019-03-15T08:49:23.300Z,2.40
2019-03-15T08:50:24.714Z,2.10
2019-03-15T08:51:23.277Z,2.40
2019-03-15T08:52:23.265Z,2.70
2019-03-15T08:53:23.353Z,2.50
2019-03-15T08:54:23.246Z,2.50
2019-03-15T08:55:23.233Z,2.90
2019-03-15T08:56:23.222Z,2.60
2019-03-15T08:57:23.212Z,3.00
2019-03-15T08:58:23.214Z,2.70
2019-03-15T08:59:23.191Z,2.60
2019-03-15T09:00:23.179Z,3.00
2019-03-15T09:01:24.034Z,3.10
2019-03-15T09:02:23.158Z,3.00
2019-03-15T09:03:28.325Z,2.50
2019-03-15T09:04:24.138Z,2.60
2019-03-15T09:05:23.128Z,2.40
2019-03-15T09:06:23.113Z,2.50
2019-03-15T09:07:23.102Z,2.80
2019-03-15T09:08:23.100Z,2.90
2019-03-15T09:09:23.084Z,3.00
2019-03-15T09:10:24.218Z,3.20
2019-03-15T09:11:23.058Z,3.40
2019-03-15T09:12:23.048Z,3.20
2019-03-15T09:13:23.046Z,2.90
2019-03-15T09:14:23.027Z,3.10
2019-03-15T09:15:23.016Z,3.10
2019-03-15T09:16:23.006Z,3.60
2019-03-15T09:17:22.992Z,3.10
2019-03-15T09:18:23.030Z,3.10
2019-03-15T09:19:22.971Z,3.20
2019-03-15T09:20:22.961Z,3.30
2019-03-15T09:21:22.950Z,3.10
2019-03-15T09:22:22.944Z,3.30
2019-03-15T09:23:22.938Z,3.20
2019-03-15T09:24:22.918Z,3.10
2019-03-15T09:25:22.905Z,3.20
2019-03-15T09:26:22.898Z,3.00
2019-03-15T09:27:22.883Z,3.20
2019-03-15T09:28:22.881Z,2.80
2019-03-15T09:29:22.861Z,3.10
2019-03-15T09:30:24.219Z,2.90
2019-03-15T09:31:22.841Z,2.80
2019-03-15T09:32:22.832Z,3.30
2019-03-15T09:33:22.827Z,3.10
2019-03-15T09:34:22.806Z,2.70
2019-03-15T09:35:22.797Z,3.10
2019-03-15T09:36:22.785Z,3.20
2019-03-15T09:37:22.778Z,3.30
2019-03-15T09:38:22.774Z,3.10
2019-03-15T09:39:22.753Z,3.50
2019-03-15T09:40:25.433Z,3.40
2019-03-15T09:41:31.907Z,3.20
2019-03-15T09:42:23.720Z,3.30
2019-03-15T09:43:22.723Z,3.80
2019-03-15T09:44:22.699Z,3.40
2019-03-15T09:45:22.691Z,3.60
2019-03-15T09:46:22.687Z,3.70
2019-03-15T09:47:22.667Z,3.10
2019-03-15T09:48:22.681Z,3.40
2019-03-15T09:49:22.645Z,3.40
2019-03-15T09:50:33.866Z,3.30
2019-03-15T09:51:23.622Z,3.60
2019-03-15T09:52:22.613Z,4.00
2019-03-15T09:53:22.608Z,3.60
2019-03-15T09:54:22.599Z,3.70
2019-03-15T09:55:32.179Z,3.50
2019-03-15T09:56:23.567Z,4.10
2019-03-15T09:57:22.560Z,3.80
2019-03-15T09:58:22.548Z,3.70
2019-03-15T09:59:22.546Z,4.00
2019-03-15T10:00:22.524Z,3.90
2019-03-15T10:01:34.927Z,3.60
2019-03-15T10:02:30.387Z,3.90
2019-03-15T10:03:23.491Z,3.90
2019-03-15T10:04:22.492Z,4.10
2019-03-15T10:05:22.472Z,4.10
2019-03-15T10:06:22.461Z,4.20
2019-03-15T10:07:22.518Z,4.00
2019-03-15T10:08:23.775Z,4.10
2019-03-15T10:09:22.444Z,4.40
2019-03-15T10:10:22.417Z,4.10
2019-03-15T10:11:22.415Z,4.20
2019-03-15T10:12:22.395Z,4.40
2019-03-15T10:13:22.387Z,4.10
2019-03-15T10:14:22.383Z,3.70
2019-03-15T10:15:22.363Z,4.00
2019-03-15T10:16:22.353Z,4.10
2019-03-15T10:17:23.191Z,4.00
2019-03-15T10:18:22.331Z,4.30
2019-03-15T10:19:22.329Z,4.20
2019-03-15T10:20:22.312Z,4.20
2019-03-15T10:21:22.299Z,3.50
2019-03-15T10:22:22.287Z,3.90
2019-03-15T10:23:22.282Z,4.20
2019-03-15T10:24:22.277Z,4.00
2019-03-15T10:25:22.259Z,4.20
2019-03-15T10:26:22.246Z,4.70
2019-03-15T10:27:22.241Z,4.30
2019-03-15T10:28:22.223Z,4.20
2019-03-15T10:29:22.223Z,4.00
2019-03-15T10:30:22.303Z,4.40
2019-03-15T10:31:22.192Z,4.50
2019-03-15T10:32:22.180Z,3.90
2019-03-15T10:33:22.170Z,3.80
2019-03-15T10:34:22.168Z,4.10
2019-03-15T10:35:22.149Z,4.20
2019-03-15T10:36:22.138Z,3.90
2019-03-15T10:37:22.127Z,3.80
2019-03-15T10:38:22.116Z,4.00
2019-03-15T10:39:22.116Z,3.70
2019-03-15T10:40:22.101Z,3.60
2019-03-15T10:41:22.083Z,3.80
2019-03-15T10:42:22.075Z,4.00
2019-03-15T10:43:22.080Z,4.00
2019-03-15T10:44:22.060Z,3.80
2019-03-15T10:45:22.040Z,4.00
2019-03-15T10:46:22.029Z,4.20
2019-03-15T10:47:22.019Z,3.90
2019-03-15T10:48:25.607Z,3.80
2019-03-15T10:49:22.006Z,4.10
2019-03-15T10:50:21.987Z,4.20
2019-03-15T10:51:21.981Z,3.80
2019-03-15T10:52:21.965Z,3.70
2019-03-15T10:53:21.956Z,3.60
2019-03-15T10:54:21.952Z,4.40
2019-03-15T10:55:21.938Z,3.70
2019-03-15T10:56:21.920Z,3.70
2019-03-15T10:57:21.913Z,3.80
2019-03-15T10:58:21.899Z,3.70
2019-03-15T10:59:21.898Z,3.60
2019-03-15T11:00:21.879Z,3.50
2019-03-15T11:01:21.868Z,3.40
2019-03-15T11:02:21.858Z,3.80
2019-03-15T11:03:21.849Z,3.30
2019-03-15T11:04:21.865Z,3.40
2019-03-15T11:05:21.835Z,3.50
2019-03-15T11:06:21.816Z,3.40
2019-03-15T11:07:21.805Z,3.50
2019-03-15T11:08:24.177Z,3.30
2019-03-15T11:09:21.782Z,3.30
2019-03-15T11:10:21.785Z,3.50
2019-03-15T11:11:21.762Z,3.10
2019-03-15T11:12:21.752Z,3.40
2019-03-15T11:13:21.740Z,3.30
2019-03-15T11:14:21.730Z,3.30
2019-03-15T11:15:21.729Z,3.30
2019-03-15T11:16:21.706Z,3.30
2019-03-15T11:17:21.698Z,3.10
2019-03-15T11:18:21.688Z,3.20
2019-03-15T11:19:21.677Z,3.50
2019-03-15T11:20:21.676Z,3.40
2019-03-15T11:21:21.655Z,3.30
2019-03-15T11:22:21.645Z,3.40
2019-03-15T11:23:21.638Z,3.60
2019-03-15T11:24:21.638Z,3.60
2019-03-15T11:25:21.621Z,3.40
2019-03-15T11:26:21.603Z,3.50
2019-03-15T11:27:21.592Z,3.70
2019-03-15T11:28:21.583Z,3.70
2019-03-15T11:29:21.569Z,3.10
2019-03-15T11:30:21.568Z,3.00
2019-03-15T11:31:21.550Z,3.80
2019-03-15T11:32:21.538Z,3.60
2019-03-15T11:33:21.535Z,3.60
2019-03-15T11:34:21.523Z,3.40
2019-03-15T11:35:21.770Z,3.30
2019-03-15T11:36:21.493Z,3.30
2019-03-15T11:37:21.482Z,3.70
2019-03-15T11:38:21.471Z,3.20
2019-03-15T11:39:21.460Z,3.40
2019-03-15T11:40:21.459Z,3.20
2019-03-15T11:41:21.441Z,3.10
2019-03-15T11:42:21.427Z,2.80
2019-03-15T11:43:21.415Z,3.30
2019-03-15T11:44:21.403Z,3.50
2019-03-15T11:45:21.403Z,3.00
2019-03-15T11:46:21.382Z,3.40
2019-03-15T11:47:21.390Z,3.40
2019-03-15T11:48:21.364Z,3.20
2019-03-15T11:49:21.353Z,3.20
2019-03-15T11:50:21.347Z,3.40
2019-03-15T11:51:21.325Z,3.30
2019-03-15T11:52:21.313Z,3.50
2019-03-15T11:53:21.302Z,3.30
2019-03-15T11:54:21.293Z,3.10
2019-03-15T11:55:21.289Z,3.40
2019-03-15T11:56:26.939Z,3.40
2019-03-15T11:57:22.256Z,3.70
2019-03-15T11:58:21.247Z,3.20
2019-03-15T11:59:21.236Z,3.30
2019-03-15T12:00:21.233Z,3.20
2019-03-15T12:01:21.214Z,3.40
2019-03-15T12:02:21.204Z,3.30
2019-03-15T12:03:21.193Z,3.10
2019-03-15T12:04:21.185Z,3.40
2019-03-15T12:05:21.183Z,3.40
2019-03-15T12:06:21.158Z,3.40
2019-03-15T12:07:21.147Z,3.40
2019-03-15T12:08:21.146Z,3.50
2019-03-15T12:09:21.126Z,3.60
2019-03-15T12:10:21.125Z,3.80
2019-03-15T12:11:21.103Z,3.60
2019-03-15T12:12:21.836Z,3.30
2019-03-15T12:13:21.085Z,3.50
2019-03-15T12:14:21.072Z,3.60
2019-03-15T12:15:21.071Z,3.60
2019-03-15T12:16:21.048Z,3.30
2019-03-15T12:17:21.037Z,3.70
2019-03-15T12:18:21.025Z,3.70
2019-03-15T12:19:21.015Z,3.80
2019-03-15T12:20:21.012Z,3.80
2019-03-15T12:21:20.997Z,3.80
2019-03-15T12:22:20.979Z,3.70
2019-03-15T12:23:20.969Z,3.90
2019-03-15T12:24:20.987Z,4.00
2019-03-15T12:25:20.955Z,3.80
2019-03-15T12:26:20.964Z,3.70
2019-03-15T12:27:20.926Z,3.50
2019-03-15T12:28:20.912Z,3.70
2019-03-15T12:29:20.905Z,4.00
2019-03-15T12:30:20.901Z,3.70
2019-03-15T12:31:20.882Z,4.10
2019-03-15T12:32:23.594Z,4.20
2019-03-15T12:33:20.858Z,4.60
2019-03-15T12:34:20.846Z,4.10
2019-03-15T12:35:20.850Z,3.90
2019-03-15T12:36:20.824Z,3.60
2019-03-15T12:37:20.817Z,3.80
2019-03-15T12:38:20.808Z,3.60
2019-03-15T12:39:20.790Z,3.90
2019-03-15T12:40:20.790Z,3.80
2019-03-15T12:41:20.771Z,3.60
2019-03-15T12:42:20.760Z,3.60
2019-03-15T12:43:20.750Z,3.50
2019-03-15T12:44:20.737Z,3.80
2019-03-15T12:45:20.736Z,3.80
2019-03-15T12:46:20.719Z,3.70
2019-03-15T12:47:20.706Z,3.60
2019-03-15T12:48:20.698Z,3.60
2019-03-15T12:49:20.777Z,3.50
2019-03-15T12:50:20.685Z,3.20
2019-03-15T12:51:31.720Z,3.40
2019-03-15T12:52:21.651Z,3.50
2019-03-15T12:53:20.641Z,3.00
2019-03-15T12:54:20.631Z,3.90
2019-03-15T12:55:20.628Z,3.70
2019-03-15T12:56:20.608Z,3.60
2019-03-15T12:57:20.599Z,3.80
2019-03-15T12:58:20.588Z,3.70
2019-03-15T12:59:20.579Z,3.60
2019-03-15T13:00:20.585Z,4.00
2019-03-15T13:01:20.557Z,4.00
2019-03-15T13:02:20.636Z,4.10
2019-03-15T13:03:20.534Z,4.20
2019-03-15T13:04:20.522Z,4.70
2019-03-15T13:05:20.511Z,4.70
2019-03-15T13:06:20.517Z,4.50
2019-03-15T13:07:20.498Z,4.30
2019-03-15T13:08:20.481Z,4.60
2019-03-15T13:09:20.469Z,4.40
2019-03-15T13:10:20.460Z,4.30
2019-03-15T13:11:20.455Z,4.50
2019-03-15T13:12:20.438Z,4.70
2019-03-15T13:13:20.455Z,4.40
2019-03-15T13:14:20.416Z,4.30
2019-03-15T13:15:20.406Z,4.70
2019-03-15T13:16:20.405Z,4.50
2019-03-15T13:17:20.387Z,4.60
2019-03-15T13:18:20.372Z,4.70